sensor_id;sensor_type;location;lat;lon;timestamp;pressure;altitude;pressure_sealevel;temperature;humidity
15670;BME280;18524;45.190;5.732;2022-07-17T00:01:19;99407.38;;;26.78;33.69
15670;BME280;18524;45.190;5.732;2022-07-17T00:06:09;99424.75;;;26.75;33.55
15670;BME280;18524;45.190;5.732;2022-07-17T00:11:00;99421.69;;;26.72;33.86
15670;BME280;18524;45.190;5.732;2022-07-17T00:15:51;99430.81;;;26.71;33.97
15670;BME280;18524;45.190;5.732;2022-07-17T00:20:42;99435.19;;;26.65;33.85
15670;BME280;18524;45.190;5.732;2022-07-17T00:25:34;99432.41;;;26.54;34.13
15670;BME280;18524;45.190;5.732;2022-07-17T00:30:24;99433.06;;;26.49;34.43
15670;BME280;18524;45.190;5.732;2022-07-17T00:35:14;99431.91;;;26.38;36.16
15670;BME280;18524;45.190;5.732;2022-07-17T00:40:06;99431.53;;;26.28;35.33
15670;BME280;18524;45.190;5.732;2022-07-17T00:44:57;99436.41;;;26.13;35.25
15670;BME280;18524;45.190;5.732;2022-07-17T00:49:47;99441.63;;;26.08;35.52
15670;BME280;18524;45.190;5.732;2022-07-17T00:54:39;99445.34;;;26.07;35.43
15670;BME280;18524;45.190;5.732;2022-07-17T00:59:31;99445.41;;;25.94;35.74
15670;BME280;18524;45.190;5.732;2022-07-17T01:04:23;99444.00;;;25.84;35.78
15670;BME280;18524;45.190;5.732;2022-07-17T01:09:13;99450.88;;;25.80;36.11
15670;BME280;18524;45.190;5.732;2022-07-17T01:14:04;99445.53;;;25.74;36.23
15670;BME280;18524;45.190;5.732;2022-07-17T01:18:55;99450.72;;;25.69;36.49
15670;BME280;18524;45.190;5.732;2022-07-17T01:23:46;99440.78;;;25.63;36.78
15670;BME280;18524;45.190;5.732;2022-07-17T01:28:36;99439.94;;;25.62;36.69
15670;BME280;18524;45.190;5.732;2022-07-17T01:33:26;99442.25;;;25.59;36.63
15670;BME280;18524;45.190;5.732;2022-07-17T01:38:17;99452.59;;;25.55;37.18
15670;BME280;18524;45.190;5.732;2022-07-17T01:43:07;99445.78;;;25.52;37.12
15670;BME280;18524;45.190;5.732;2022-07-17T01:47:58;99447.22;;;25.55;36.58
15670;BME280;18524;45.190;5.732;2022-07-17T01:52:49;99447.81;;;25.57;36.62
15670;BME280;18524;45.190;5.732;2022-07-17T01:57:40;99460.03;;;25.53;36.85
15670;BME280;18524;45.190;5.732;2022-07-17T02:02:30;99452.81;;;25.53;36.60
15670;BME280;18524;45.190;5.732;2022-07-17T02:07:21;99454.47;;;25.48;36.68
15670;BME280;18524;45.190;5.732;2022-07-17T02:12:11;99456.75;;;25.44;37.00
15670;BME280;18524;45.190;5.732;2022-07-17T02:17:02;99454.72;;;25.40;36.99
15670;BME280;18524;45.190;5.732;2022-07-17T02:21:52;99449.38;;;25.33;36.73
15670;BME280;18524;45.190;5.732;2022-07-17T02:26:43;99446.06;;;25.31;36.89
15670;BME280;18524;45.190;5.732;2022-07-17T02:31:33;99437.81;;;25.33;37.54
15670;BME280;18524;45.190;5.732;2022-07-17T02:36:24;99447.69;;;25.39;38.32
15670;BME280;18524;45.190;5.732;2022-07-17T02:41:15;99458.19;;;25.47;38.13
15670;BME280;18524;45.190;5.732;2022-07-17T02:46:06;99447.88;;;25.44;38.17
15670;BME280;18524;45.190;5.732;2022-07-17T02:50:56;99451.44;;;25.38;38.15
15670;BME280;18524;45.190;5.732;2022-07-17T02:55:47;99456.41;;;25.28;38.96
15670;BME280;18524;45.190;5.732;2022-07-17T03:00:37;99453.94;;;25.19;38.71
15670;BME280;18524;45.190;5.732;2022-07-17T03:05:27;99451.06;;;25.14;39.68
15670;BME280;18524;45.190;5.732;2022-07-17T03:10:18;99455.00;;;25.05;39.18
15670;BME280;18524;45.190;5.732;2022-07-17T03:15:09;99456.03;;;24.98;39.29
15670;BME280;18524;45.190;5.732;2022-07-17T03:20:00;99456.66;;;24.93;39.69
15670;BME280;18524;45.190;5.732;2022-07-17T03:24:51;99455.59;;;24.87;39.77
15670;BME280;18524;45.190;5.732;2022-07-17T03:29:41;99458.50;;;24.79;39.89
15670;BME280;18524;45.190;5.732;2022-07-17T03:34:32;99459.97;;;24.69;40.24
15670;BME280;18524;45.190;5.732;2022-07-17T03:39:22;99463.06;;;24.66;40.33
15670;BME280;18524;45.190;5.732;2022-07-17T03:44:13;99462.47;;;24.57;40.64
15670;BME280;18524;45.190;5.732;2022-07-17T03:49:03;99469.44;;;24.51;40.69
15670;BME280;18524;45.190;5.732;2022-07-17T03:53:54;99471.50;;;24.43;41.08
15670;BME280;18524;45.190;5.732;2022-07-17T03:58:44;99469.22;;;24.40;40.99
15670;BME280;18524;45.190;5.732;2022-07-17T04:03:35;99488.63;;;24.35;41.55
15670;BME280;18524;45.190;5.732;2022-07-17T04:08:25;99484.84;;;24.16;42.18
15670;BME280;18524;45.190;5.732;2022-07-17T04:13:15;99488.94;;;24.06;42.30
15670;BME280;18524;45.190;5.732;2022-07-17T04:18:06;99494.69;;;23.96;42.65
15670;BME280;18524;45.190;5.732;2022-07-17T04:22:57;99496.50;;;23.89;43.29
15670;BME280;18524;45.190;5.732;2022-07-17T04:27:47;99494.25;;;23.92;43.37
15670;BME280;18524;45.190;5.732;2022-07-17T04:32:38;99494.25;;;23.92;43.48
15670;BME280;18524;45.190;5.732;2022-07-17T04:37:28;99510.75;;;23.96;43.30
15670;BME280;18524;45.190;5.732;2022-07-17T04:42:18;99508.28;;;24.01;42.92
15670;BME280;18524;45.190;5.732;2022-07-17T04:47:09;99504.78;;;24.00;43.29
15670;BME280;18524;45.190;5.732;2022-07-17T04:51:59;99509.34;;;24.13;44.00
15670;BME280;18524;45.190;5.732;2022-07-17T04:56:50;99506.50;;;24.21;42.86
15670;BME280;18524;45.190;5.732;2022-07-17T05:01:40;99513.00;;;24.53;42.15
15670;BME280;18524;45.190;5.732;2022-07-17T05:06:30;99510.13;;;24.75;43.07
15670;BME280;18524;45.190;5.732;2022-07-17T05:11:21;99513.00;;;24.73;42.72
15670;BME280;18524;45.190;5.732;2022-07-17T05:16:11;99516.72;;;24.85;42.07
15670;BME280;18524;45.190;5.732;2022-07-17T05:21:02;99511.38;;;24.99;41.29
15670;BME280;18524;45.190;5.732;2022-07-17T05:25:52;99520.88;;;25.28;40.79
15670;BME280;18524;45.190;5.732;2022-07-17T05:30:43;99520.38;;;25.70;40.00
15670;BME280;18524;45.190;5.732;2022-07-17T05:35:33;99526.34;;;26.17;39.25
15670;BME280;18524;45.190;5.732;2022-07-17T05:40:23;99527.72;;;26.64;38.48
15670;BME280;18524;45.190;5.732;2022-07-17T05:45:15;99527.97;;;27.37;37.32
15670;BME280;18524;45.190;5.732;2022-07-17T05:50:06;99526.44;;;27.66;36.92
15670;BME280;18524;45.190;5.732;2022-07-17T05:54:57;99529.09;;;27.85;36.86
15670;BME280;18524;45.190;5.732;2022-07-17T05:59:47;99532.28;;;27.63;36.09
15670;BME280;18524;45.190;5.732;2022-07-17T06:04:37;99534.81;;;28.43;35.87
15670;BME280;18524;45.190;5.732;2022-07-17T06:09:28;99534.81;;;28.55;34.04
15670;BME280;18524;45.190;5.732;2022-07-17T06:14:18;99538.56;;;28.95;34.02
15670;BME280;18524;45.190;5.732;2022-07-17T06:19:08;99530.97;;;29.16;33.34
15670;BME280;18524;45.190;5.732;2022-07-17T06:23:59;99542.22;;;28.89;33.37
15670;BME280;18524;45.190;5.732;2022-07-17T06:28:49;99532.03;;;29.38;32.73
15670;BME280;18524;45.190;5.732;2022-07-17T06:33:39;99535.94;;;28.66;33.15
15670;BME280;18524;45.190;5.732;2022-07-17T06:38:32;99540.34;;;29.25;33.36
15670;BME280;18524;45.190;5.732;2022-07-17T06:43:23;99553.16;;;29.41;33.64
15670;BME280;18524;45.190;5.732;2022-07-17T06:48:13;99548.81;;;29.75;32.40
15670;BME280;18524;45.190;5.732;2022-07-17T06:53:04;99549.72;;;29.69;31.90
15670;BME280;18524;45.190;5.732;2022-07-17T06:57:54;99541.59;;;29.93;31.21
15670;BME280;18524;45.190;5.732;2022-07-17T07:02:45;99539.84;;;30.27;32.05
15670;BME280;18524;45.190;5.732;2022-07-17T07:07:35;99543.72;;;30.47;31.22
15670;BME280;18524;45.190;5.732;2022-07-17T07:12:25;99549.94;;;30.03;30.56
15670;BME280;18524;45.190;5.732;2022-07-17T07:17:16;99540.47;;;30.17;31.45
15670;BME280;18524;45.190;5.732;2022-07-17T07:22:06;99543.13;;;30.57;29.58
15670;BME280;18524;45.190;5.732;2022-07-17T07:26:57;99544.38;;;30.83;29.22
15670;BME280;18524;45.190;5.732;2022-07-17T07:31:47;99537.50;;;30.47;29.00
15670;BME280;18524;45.190;5.732;2022-07-17T07:36:38;99549.09;;;30.14;29.94
15670;BME280;18524;45.190;5.732;2022-07-17T07:41:28;99547.47;;;30.30;29.75
15670;BME280;18524;45.190;5.732;2022-07-17T07:46:19;99540.81;;;30.49;29.95
15670;BME280;18524;45.190;5.732;2022-07-17T07:51:09;99541.09;;;30.64;29.59
15670;BME280;18524;45.190;5.732;2022-07-17T07:56:01;99540.25;;;31.48;28.51
15670;BME280;18524;45.190;5.732;2022-07-17T08:00:51;99542.38;;;31.62;27.74
15670;BME280;18524;45.190;5.732;2022-07-17T08:05:42;99535.72;;;32.19;27.17
15670;BME280;18524;45.190;5.732;2022-07-17T08:10:32;99545.84;;;31.80;27.08
15670;BME280;18524;45.190;5.732;2022-07-17T08:15:23;99532.97;;;31.92;27.23
15670;BME280;18524;45.190;5.732;2022-07-17T08:20:13;99532.91;;;31.87;27.25
15670;BME280;18524;45.190;5.732;2022-07-17T08:25:05;99532.34;;;32.07;27.10
15670;BME280;18524;45.190;5.732;2022-07-17T08:29:55;99527.38;;;32.47;27.44
15670;BME280;18524;45.190;5.732;2022-07-17T08:34:45;99531.00;;;32.85;26.56
15670;BME280;18524;45.190;5.732;2022-07-17T08:39:37;99524.94;;;33.10;25.84
15670;BME280;18524;45.190;5.732;2022-07-17T08:44:27;99532.09;;;32.89;25.84
15670;BME280;18524;45.190;5.732;2022-07-17T08:49:20;99533.69;;;33.17;25.92
15670;BME280;18524;45.190;5.732;2022-07-17T08:54:12;99521.22;;;33.26;25.54
15670;BME280;18524;45.190;5.732;2022-07-17T08:59:02;99534.59;;;32.95;26.85
15670;BME280;18524;45.190;5.732;2022-07-17T09:04:03;99534.28;;;33.29;25.88
15670;BME280;18524;45.190;5.732;2022-07-17T09:09:08;99540.91;;;33.91;26.20
15670;BME280;18524;45.190;5.732;2022-07-17T09:13:59;99532.47;;;33.87;24.76
15670;BME280;18524;45.190;5.732;2022-07-17T09:18:51;99524.47;;;34.43;24.32
15670;BME280;18524;45.190;5.732;2022-07-17T09:23:44;99534.25;;;34.44;24.57
15670;BME280;18524;45.190;5.732;2022-07-17T09:28:44;99529.13;;;34.83;24.20
15670;BME280;18524;45.190;5.732;2022-07-17T09:33:34;99528.59;;;34.96;24.28
15670;BME280;18524;45.190;5.732;2022-07-17T09:38:33;99527.97;;;35.30;23.14
15670;BME280;18524;45.190;5.732;2022-07-17T09:43:24;99528.03;;;35.15;23.39
15670;BME280;18524;45.190;5.732;2022-07-17T09:48:15;99521.13;;;35.53;22.85
15670;BME280;18524;45.190;5.732;2022-07-17T09:53:07;99522.16;;;35.77;22.83
15670;BME280;18524;45.190;5.732;2022-07-17T09:57:58;99528.69;;;35.86;23.09
15670;BME280;18524;45.190;5.732;2022-07-17T10:02:51;99520.53;;;35.71;23.20
15670;BME280;18524;45.190;5.732;2022-07-17T10:07:43;99523.59;;;35.54;23.04
15670;BME280;18524;45.190;5.732;2022-07-17T10:12:42;99511.56;;;35.60;22.45
15670;BME280;18524;45.190;5.732;2022-07-17T10:17:32;99501.94;;;36.27;23.04
15670;BME280;18524;45.190;5.732;2022-07-17T10:22:24;99503.22;;;37.08;21.47
15670;BME280;18524;45.190;5.732;2022-07-17T10:32:18;99513.97;;;37.52;21.48
15670;BME280;18524;45.190;5.732;2022-07-17T10:37:21;99501.97;;;37.96;20.91
15670;BME280;18524;45.190;5.732;2022-07-17T10:42:12;99487.91;;;38.40;20.19
15670;BME280;18524;45.190;5.732;2022-07-17T10:47:02;99489.19;;;38.81;20.19
15670;BME280;18524;45.190;5.732;2022-07-17T10:51:53;99492.53;;;39.24;19.24
15670;BME280;18524;45.190;5.732;2022-07-17T10:56:43;99488.91;;;39.56;18.49
15670;BME280;18524;45.190;5.732;2022-07-17T11:01:37;99485.00;;;39.84;19.33
15670;BME280;18524;45.190;5.732;2022-07-17T11:06:32;99479.09;;;40.27;18.63
15670;BME280;18524;45.190;5.732;2022-07-17T11:11:45;99473.03;;;40.39;18.60
15670;BME280;18524;45.190;5.732;2022-07-17T11:16:36;99465.03;;;40.51;18.45
15670;BME280;18524;45.190;5.732;2022-07-17T11:21:27;99458.94;;;40.85;18.19
15670;BME280;18524;45.190;5.732;2022-07-17T11:26:18;99449.84;;;41.15;18.46
15670;BME280;18524;45.190;5.732;2022-07-17T11:31:20;99446.88;;;41.34;18.52
15670;BME280;18524;45.190;5.732;2022-07-17T11:36:11;99424.88;;;41.60;17.81
15670;BME280;18524;45.190;5.732;2022-07-17T11:41:02;99434.34;;;41.68;18.08
15670;BME280;18524;45.190;5.732;2022-07-17T11:45:52;99427.69;;;41.95;17.80
15670;BME280;18524;45.190;5.732;2022-07-17T11:50:52;99428.34;;;41.83;17.71
15670;BME280;18524;45.190;5.732;2022-07-17T11:55:44;99431.50;;;41.50;17.41
15670;BME280;18524;45.190;5.732;2022-07-17T12:00:34;99421.69;;;41.93;17.99
15670;BME280;18524;45.190;5.732;2022-07-17T12:05:30;99418.75;;;42.32;17.36
15670;BME280;18524;45.190;5.732;2022-07-17T12:10:23;99409.19;;;42.38;17.21
15670;BME280;18524;45.190;5.732;2022-07-17T12:15:14;99401.94;;;42.81;17.32
15670;BME280;18524;45.190;5.732;2022-07-17T12:20:06;99416.88;;;42.88;17.20
15670;BME280;18524;45.190;5.732;2022-07-17T12:24:57;99412.34;;;43.22;16.68
15670;BME280;18524;45.190;5.732;2022-07-17T12:29:47;99406.53;;;43.15;16.77
15670;BME280;18524;45.190;5.732;2022-07-17T12:34:43;99397.78;;;43.13;16.93
15670;BME280;18524;45.190;5.732;2022-07-17T12:39:37;99397.25;;;43.19;17.32
15670;BME280;18524;45.190;5.732;2022-07-17T12:44:27;99395.41;;;43.32;16.79
15670;BME280;18524;45.190;5.732;2022-07-17T12:49:17;99372.09;;;43.42;16.64
15670;BME280;18524;45.190;5.732;2022-07-17T12:54:08;99391.19;;;43.26;16.72
15670;BME280;18524;45.190;5.732;2022-07-17T12:58:58;99388.13;;;43.27;16.74
15670;BME280;18524;45.190;5.732;2022-07-17T13:03:49;99372.22;;;43.45;17.24
15670;BME280;18524;45.190;5.732;2022-07-17T13:08:39;99375.97;;;43.20;17.01
15670;BME280;18524;45.190;5.732;2022-07-17T13:13:30;99377.94;;;43.40;17.29
15670;BME280;18524;45.190;5.732;2022-07-17T13:18:21;99378.38;;;43.72;16.82
15670;BME280;18524;45.190;5.732;2022-07-17T13:23:12;99369.56;;;43.57;16.95
15670;BME280;18524;45.190;5.732;2022-07-17T13:28:03;99352.63;;;43.80;17.10
15670;BME280;18524;45.190;5.732;2022-07-17T13:32:53;99364.44;;;43.89;16.83
15670;BME280;18524;45.190;5.732;2022-07-17T13:37:44;99357.94;;;43.64;17.44
15670;BME280;18524;45.190;5.732;2022-07-17T13:42:34;99354.63;;;43.29;16.95
15670;BME280;18524;45.190;5.732;2022-07-17T13:47:25;99349.81;;;43.17;17.34
15670;BME280;18524;45.190;5.732;2022-07-17T13:52:15;99356.03;;;43.05;17.54
15670;BME280;18524;45.190;5.732;2022-07-17T13:57:06;99339.25;;;42.52;17.52
15670;BME280;18524;45.190;5.732;2022-07-17T14:01:56;99341.13;;;42.04;18.19
15670;BME280;18524;45.190;5.732;2022-07-17T14:06:46;99333.66;;;41.62;18.90
15670;BME280;18524;45.190;5.732;2022-07-17T14:11:37;99339.75;;;41.15;18.43
15670;BME280;18524;45.190;5.732;2022-07-17T14:16:28;99326.63;;;40.64;19.26
15670;BME280;18524;45.190;5.732;2022-07-17T14:21:18;99315.91;;;40.23;19.65
15670;BME280;18524;45.190;5.732;2022-07-17T14:26:09;99309.13;;;39.98;19.94
15670;BME280;18524;45.190;5.732;2022-07-17T14:31:00;99320.28;;;39.79;20.38
15670;BME280;18524;45.190;5.732;2022-07-17T14:35:50;99317.22;;;39.45;20.80
15670;BME280;18524;45.190;5.732;2022-07-17T14:40:40;99312.38;;;39.00;20.65
15670;BME280;18524;45.190;5.732;2022-07-17T14:45:31;99311.25;;;38.60;21.27
15670;BME280;18524;45.190;5.732;2022-07-17T14:50:21;99305.78;;;38.00;21.96
15670;BME280;18524;45.190;5.732;2022-07-17T14:55:11;99304.06;;;37.72;22.37
15670;BME280;18524;45.190;5.732;2022-07-17T15:00:03;99315.88;;;37.48;22.69
15670;BME280;18524;45.190;5.732;2022-07-17T15:04:53;99299.91;;;37.13;23.06
15670;BME280;18524;45.190;5.732;2022-07-17T15:09:44;99300.72;;;37.13;22.94
15670;BME280;18524;45.190;5.732;2022-07-17T15:14:34;99292.81;;;37.12;23.12
15670;BME280;18524;45.190;5.732;2022-07-17T15:19:25;99298.06;;;36.89;23.65
15670;BME280;18524;45.190;5.732;2022-07-17T15:24:15;99292.72;;;36.74;23.45
15670;BME280;18524;45.190;5.732;2022-07-17T15:29:05;99287.97;;;36.61;23.71
15670;BME280;18524;45.190;5.732;2022-07-17T15:33:56;99284.31;;;36.47;24.74
15670;BME280;18524;45.190;5.732;2022-07-17T15:38:46;99288.75;;;36.43;23.72
15670;BME280;18524;45.190;5.732;2022-07-17T15:43:43;99300.28;;;36.35;24.17
15670;BME280;18524;45.190;5.732;2022-07-17T15:48:33;99289.41;;;36.29;24.43
15670;BME280;18524;45.190;5.732;2022-07-17T15:53:23;99288.91;;;36.22;24.11
15670;BME280;18524;45.190;5.732;2022-07-17T15:58:14;99288.38;;;36.20;23.85
15670;BME280;18524;45.190;5.732;2022-07-17T16:03:04;99279.25;;;36.06;24.09
15670;BME280;18524;45.190;5.732;2022-07-17T16:07:54;99284.19;;;35.99;24.34
15670;BME280;18524;45.190;5.732;2022-07-17T16:12:45;99277.22;;;35.88;24.50
15670;BME280;18524;45.190;5.732;2022-07-17T16:17:36;99274.53;;;35.83;24.89
15670;BME280;18524;45.190;5.732;2022-07-17T16:22:26;99270.47;;;35.75;25.09
15670;BME280;18524;45.190;5.732;2022-07-17T16:27:17;99266.97;;;35.69;25.07
15670;BME280;18524;45.190;5.732;2022-07-17T16:32:07;99277.63;;;35.66;24.95
15670;BME280;18524;45.190;5.732;2022-07-17T16:36:59;99274.06;;;35.70;25.07
15670;BME280;18524;45.190;5.732;2022-07-17T16:41:49;99280.72;;;35.54;25.29
15670;BME280;18524;45.190;5.732;2022-07-17T16:46:39;99282.38;;;35.50;24.98
15670;BME280;18524;45.190;5.732;2022-07-17T16:51:30;99263.91;;;35.42;25.30
15670;BME280;18524;45.190;5.732;2022-07-17T16:56:20;99272.94;;;35.32;25.20
15670;BME280;18524;45.190;5.732;2022-07-17T17:01:11;99275.72;;;35.22;25.13
15670;BME280;18524;45.190;5.732;2022-07-17T17:06:01;99267.59;;;35.12;25.38
15670;BME280;18524;45.190;5.732;2022-07-17T17:10:51;99274.19;;;35.06;25.80
15670;BME280;18524;45.190;5.732;2022-07-17T17:15:42;99271.75;;;34.99;25.89
15670;BME280;18524;45.190;5.732;2022-07-17T17:20:32;99276.69;;;34.92;26.19
15670;BME280;18524;45.190;5.732;2022-07-17T17:25:23;99275.63;;;34.88;25.91
15670;BME280;18524;45.190;5.732;2022-07-17T17:30:14;99276.69;;;34.87;25.83
15670;BME280;18524;45.190;5.732;2022-07-17T17:35:05;99284.09;;;34.71;26.31
15670;BME280;18524;45.190;5.732;2022-07-17T17:39:55;99289.31;;;34.68;26.52
15670;BME280;18524;45.190;5.732;2022-07-17T17:44:47;99299.69;;;34.56;26.64
15670;BME280;18524;45.190;5.732;2022-07-17T17:49:37;99299.16;;;34.59;26.84
15670;BME280;18524;45.190;5.732;2022-07-17T17:54:28;99299.16;;;34.43;27.04
15670;BME280;18524;45.190;5.732;2022-07-17T17:59:18;99316.63;;;34.22;27.26
15670;BME280;18524;45.190;5.732;2022-07-17T18:04:09;99308.16;;;34.18;27.21
15670;BME280;18524;45.190;5.732;2022-07-17T18:08:59;99315.81;;;34.22;27.58
15670;BME280;18524;45.190;5.732;2022-07-17T18:13:50;99318.53;;;34.11;27.71
15670;BME280;18524;45.190;5.732;2022-07-17T18:18:40;99316.09;;;34.00;28.03
15670;BME280;18524;45.190;5.732;2022-07-17T18:23:30;99322.91;;;33.87;28.29
15670;BME280;18524;45.190;5.732;2022-07-17T18:28:21;99325.81;;;33.70;28.32
15670;BME280;18524;45.190;5.732;2022-07-17T18:33:12;99328.00;;;33.58;28.39
15670;BME280;18524;45.190;5.732;2022-07-17T18:38:02;99322.78;;;33.41;28.49
15670;BME280;18524;45.190;5.732;2022-07-17T18:42:53;99325.22;;;33.38;29.42
15670;BME280;18524;45.190;5.732;2022-07-17T18:47:43;99334.19;;;33.33;29.44
15670;BME280;18524;45.190;5.732;2022-07-17T18:52:33;99331.97;;;33.25;29.75
15670;BME280;18524;45.190;5.732;2022-07-17T18:57:24;99336.56;;;33.14;29.67
15670;BME280;18524;45.190;5.732;2022-07-17T19:02:14;99346.25;;;32.95;30.50
15670;BME280;18524;45.190;5.732;2022-07-17T19:07:05;99347.22;;;32.74;30.53
15670;BME280;18524;45.190;5.732;2022-07-17T19:11:56;99351.56;;;32.75;30.79
15670;BME280;18524;45.190;5.732;2022-07-17T19:16:46;99348.84;;;32.75;30.89
15670;BME280;18524;45.190;5.732;2022-07-17T19:21:37;99356.13;;;32.69;31.09
15670;BME280;18524;45.190;5.732;2022-07-17T19:26:27;99355.75;;;32.50;31.26
15670;BME280;18524;45.190;5.732;2022-07-17T19:31:17;99355.72;;;32.45;32.29
15670;BME280;18524;45.190;5.732;2022-07-17T19:36:08;99367.13;;;32.47;31.44
15670;BME280;18524;45.190;5.732;2022-07-17T19:40:59;99370.53;;;32.32;31.84
15670;BME280;18524;45.190;5.732;2022-07-17T19:45:49;99370.13;;;32.19;31.97
15670;BME280;18524;45.190;5.732;2022-07-17T19:50:40;99379.66;;;32.21;32.01
15670;BME280;18524;45.190;5.732;2022-07-17T19:55:30;99385.84;;;32.12;32.15
15670;BME280;18524;45.190;5.732;2022-07-17T20:00:21;99386.34;;;32.09;32.40
15670;BME280;18524;45.190;5.732;2022-07-17T20:05:11;99382.22;;;32.01;32.41
15670;BME280;18524;45.190;5.732;2022-07-17T20:10:02;99394.28;;;31.88;32.48
15670;BME280;18524;45.190;5.732;2022-07-17T20:14:53;99406.47;;;31.86;32.62
15670;BME280;18524;45.190;5.732;2022-07-17T20:19:43;99411.81;;;31.76;33.03
15670;BME280;18524;45.190;5.732;2022-07-17T20:24:33;99417.47;;;31.74;32.65
15670;BME280;18524;45.190;5.732;2022-07-17T20:29:24;99432.13;;;31.73;32.64
15670;BME280;18524;45.190;5.732;2022-07-17T20:34:15;99427.63;;;31.62;33.59
15670;BME280;18524;45.190;5.732;2022-07-17T20:39:05;99429.44;;;31.56;33.50
15670;BME280;18524;45.190;5.732;2022-07-17T20:43:55;99432.72;;;31.58;32.77
15670;BME280;18524;45.190;5.732;2022-07-17T20:48:46;99439.97;;;31.53;33.53
15670;BME280;18524;45.190;5.732;2022-07-17T20:53:37;99443.91;;;31.40;33.52
15670;BME280;18524;45.190;5.732;2022-07-17T20:58:28;99460.91;;;31.35;33.71
15670;BME280;18524;45.190;5.732;2022-07-17T21:03:18;99455.13;;;31.27;33.46
15670;BME280;18524;45.190;5.732;2022-07-17T21:08:09;99461.53;;;31.21;33.81
15670;BME280;18524;45.190;5.732;2022-07-17T21:12:59;99458.59;;;31.22;33.71
15670;BME280;18524;45.190;5.732;2022-07-17T21:17:50;99463.31;;;31.15;33.07
15670;BME280;18524;45.190;5.732;2022-07-17T21:22:40;99465.88;;;31.05;33.27
15670;BME280;18524;45.190;5.732;2022-07-17T21:27:31;99473.94;;;31.00;33.37
15670;BME280;18524;45.190;5.732;2022-07-17T21:32:21;99470.59;;;30.93;33.73
15670;BME280;18524;45.190;5.732;2022-07-17T21:37:12;99486.66;;;30.83;34.01
15670;BME280;18524;45.190;5.732;2022-07-17T21:42:02;99481.69;;;30.74;34.17
15670;BME280;18524;45.190;5.732;2022-07-17T21:46:53;99488.31;;;30.67;34.54
15670;BME280;18524;45.190;5.732;2022-07-17T21:51:43;99484.13;;;30.59;34.74
15670;BME280;18524;45.190;5.732;2022-07-17T21:56:34;99492.97;;;30.55;35.48
15670;BME280;18524;45.190;5.732;2022-07-17T22:01:24;99498.44;;;30.43;35.46
15670;BME280;18524;45.190;5.732;2022-07-17T22:06:15;99502.88;;;30.32;35.43
15670;BME280;18524;45.190;5.732;2022-07-17T22:11:06;99511.38;;;30.24;35.60
15670;BME280;18524;45.190;5.732;2022-07-17T22:15:58;99503.19;;;30.19;35.73
15670;BME280;18524;45.190;5.732;2022-07-17T22:20:49;99509.19;;;30.09;35.82
15670;BME280;18524;45.190;5.732;2022-07-17T22:25:40;99510.38;;;30.02;35.90
15670;BME280;18524;45.190;5.732;2022-07-17T22:30:30;99512.25;;;30.01;36.21
15670;BME280;18524;45.190;5.732;2022-07-17T22:35:21;99514.78;;;29.91;36.31
15670;BME280;18524;45.190;5.732;2022-07-17T22:40:11;99527.13;;;29.87;36.15
15670;BME280;18524;45.190;5.732;2022-07-17T22:45:02;99519.41;;;29.79;36.70
15670;BME280;18524;45.190;5.732;2022-07-17T22:49:53;99523.16;;;29.78;36.83
15670;BME280;18524;45.190;5.732;2022-07-17T22:54:43;99518.34;;;29.68;36.71
15670;BME280;18524;45.190;5.732;2022-07-17T22:59:34;99533.41;;;29.64;36.81
15670;BME280;18524;45.190;5.732;2022-07-17T23:04:25;99531.09;;;29.56;37.03
15670;BME280;18524;45.190;5.732;2022-07-17T23:09:16;99525.22;;;29.47;37.59
15670;BME280;18524;45.190;5.732;2022-07-17T23:14:08;99536.50;;;29.44;37.47
15670;BME280;18524;45.190;5.732;2022-07-17T23:18:58;99534.09;;;29.36;37.55
15670;BME280;18524;45.190;5.732;2022-07-17T23:23:48;99538.59;;;29.31;37.72
15670;BME280;18524;45.190;5.732;2022-07-17T23:28:39;99539.28;;;29.26;37.76
15670;BME280;18524;45.190;5.732;2022-07-17T23:33:29;99540.47;;;29.18;37.64
15670;BME280;18524;45.190;5.732;2022-07-17T23:38:20;99536.00;;;29.12;37.75
15670;BME280;18524;45.190;5.732;2022-07-17T23:43:10;99537.19;;;29.05;37.83
15670;BME280;18524;45.190;5.732;2022-07-17T23:48:01;99556.31;;;28.91;38.49
15670;BME280;18524;45.190;5.732;2022-07-17T23:52:52;99557.66;;;28.82;38.86
15670;BME280;18524;45.190;5.732;2022-07-17T23:57:43;99559.06;;;28.73;39.32
